createdAt,value
2019-04-14T00:10:01.156Z,4.18
2019-04-14T00:25:02.399Z,4.16
2019-04-14T02:10:01.994Z,3.90
2019-04-14T03:20:28.034Z,3.95
2019-04-14T03:25:21.128Z,3.95
2019-04-14T03:36:06.282Z,3.97
2019-04-14T03:45:35.758Z,3.98
2019-04-14T03:55:15.991Z,4.01
2019-04-14T04:00:01.066Z,4.00
2019-04-14T04:05:02.230Z,4.01
2019-04-14T04:10:01.054Z,4.01
2019-04-14T04:15:01.965Z,4.02
2019-04-14T04:20:02.461Z,4.07
2019-04-14T04:25:01.118Z,4.09
2019-04-14T04:30:01.734Z,4.08
2019-04-14T04:35:02.198Z,4.10
2019-04-14T04:40:01.069Z,4.14
2019-04-14T04:45:01.776Z,4.14
2019-04-14T04:50:02.295Z,4.20
2019-04-14T04:55:02.492Z,4.26
2019-04-14T05:00:02.582Z,4.27
2019-04-14T05:05:01.327Z,4.31
2019-04-14T05:10:02.708Z,4.34
2019-04-14T05:15:01.365Z,4.34
2019-04-14T05:20:01.113Z,4.38
2019-04-14T05:25:01.612Z,4.42
2019-04-14T05:30:01.123Z,4.46
2019-04-14T05:35:01.056Z,4.44
2019-04-14T05:40:01.931Z,4.48
2019-04-14T05:45:02.431Z,4.50
2019-04-14T05:50:03.076Z,4.55
2019-04-14T05:55:02.474Z,4.58
2019-04-14T06:00:01.806Z,4.62
2019-04-14T06:05:01.544Z,4.69
2019-04-14T06:10:01.105Z,4.78
2019-04-14T06:15:01.521Z,4.82
2019-04-14T06:20:01.058Z,4.84
2019-04-14T06:25:01.099Z,4.83
2019-04-14T06:30:01.076Z,4.91
2019-04-14T06:35:01.435Z,4.96
2019-04-14T06:40:01.058Z,5.00
2019-04-14T06:45:01.063Z,5.05
2019-04-14T06:50:01.052Z,5.16
2019-04-14T06:55:01.091Z,5.24
2019-04-14T07:00:01.049Z,5.24
2019-04-14T07:05:01.529Z,5.28
2019-04-14T07:10:01.116Z,5.33
2019-04-14T07:15:01.272Z,5.31
2019-04-14T07:20:02.232Z,5.38
2019-04-14T07:25:01.095Z,5.37
2019-04-14T07:30:01.093Z,5.34
2019-04-14T07:35:01.091Z,5.42
2019-04-14T07:40:01.556Z,5.60
2019-04-14T07:45:01.293Z,5.71
2019-04-14T07:50:13.708Z,5.79
2019-04-14T07:55:01.064Z,5.79
2019-04-14T08:00:01.076Z,5.97
2019-04-14T08:05:01.084Z,6.08
2019-04-14T08:10:01.082Z,6.17
2019-04-14T08:15:01.383Z,6.07
2019-04-14T08:20:01.407Z,6.18
2019-04-14T08:25:01.546Z,6.26
2019-04-14T08:30:02.282Z,6.30
2019-04-14T08:35:01.075Z,6.33
2019-04-14T08:40:01.470Z,6.38
2019-04-14T08:45:01.370Z,6.40
2019-04-14T10:25:01.462Z,6.86
2019-04-14T10:30:01.088Z,7.01
2019-04-14T11:30:01.079Z,7.07
2019-04-14T11:35:01.441Z,7.16
